createdAt,value
2022-12-18T00:00:17.858Z,95.91
2022-12-18T00:01:20.793Z,95.85
2022-12-18T00:02:24.159Z,95.91
2022-12-18T00:04:01.331Z,96.02
2022-12-18T00:05:05.431Z,96.05
2022-12-18T00:06:08.257Z,96.05
2022-12-18T00:07:42.936Z,95.94
2022-12-18T00:08:50.005Z,95.80
2022-12-18T00:09:53.115Z,95.79
2022-12-18T00:11:27.900Z,95.77
2022-12-18T00:12:30.581Z,95.82
2022-12-18T00:13:33.545Z,95.80
2022-12-18T00:15:08.603Z,95.74
2022-12-18T00:16:12.345Z,95.65
2022-12-18T00:17:15.792Z,95.63
2022-12-18T00:18:50.552Z,95.69
2022-12-18T00:19:53.317Z,95.61
2022-12-18T00:20:56.125Z,95.58
2022-12-18T00:22:30.879Z,95.58
2022-12-18T00:23:33.940Z,95.53
2022-12-18T00:24:37.649Z,95.44
2022-12-18T00:26:12.919Z,95.43
2022-12-18T00:27:15.661Z,95.42
2022-12-18T00:28:18.633Z,95.47
2022-12-18T00:29:53.964Z,95.57
2022-12-18T00:30:57.567Z,95.56
2022-12-18T00:32:01.158Z,95.57
2022-12-18T00:33:35.983Z,95.50
2022-12-18T00:34:41.924Z,95.54
2022-12-18T00:35:44.660Z,95.57
2022-12-18T00:37:25.577Z,95.50
2022-12-18T00:38:28.449Z,95.48
2022-12-18T00:39:32.123Z,95.56
2022-12-18T00:41:07.078Z,95.62
2022-12-18T00:42:09.680Z,95.65
2022-12-18T00:43:12.571Z,95.64
2022-12-18T00:44:48.137Z,95.69
2022-12-18T00:45:58.669Z,95.70
2022-12-18T00:47:02.761Z,95.79
2022-12-18T00:48:37.336Z,95.76
2022-12-18T00:49:40.294Z,95.55
2022-12-18T00:50:43.020Z,95.48
2022-12-18T00:52:18.007Z,95.57
2022-12-18T00:53:21.136Z,95.50
2022-12-18T00:54:24.563Z,95.40
2022-12-18T00:55:59.468Z,95.30
2022-12-18T00:57:02.138Z,95.33
2022-12-18T00:58:05.186Z,95.30
2022-12-18T00:59:40.036Z,95.25
2022-12-18T01:00:18.290Z,95.25
2022-12-18T01:01:21.948Z,95.16
2022-12-18T01:02:26.407Z,95.19
2022-12-18T01:04:02.447Z,95.11
2022-12-18T01:05:05.191Z,95.18
2022-12-18T01:06:08.051Z,95.08
2022-12-18T01:07:42.849Z,94.84
2022-12-18T01:08:45.785Z,94.85
2022-12-18T01:09:48.720Z,94.83
2022-12-18T01:11:23.536Z,94.76
2022-12-18T01:12:26.155Z,94.76
2022-12-18T01:13:29.040Z,94.84
2022-12-18T01:15:04.547Z,94.81
2022-12-18T01:16:07.442Z,94.75
2022-12-18T01:17:10.787Z,94.60
2022-12-18T01:18:45.490Z,94.64
2022-12-18T01:19:48.576Z,94.56
2022-12-18T01:20:51.441Z,94.69
2022-12-18T01:22:26.085Z,94.68
2022-12-18T01:23:29.051Z,94.72
2022-12-18T01:24:33.315Z,94.72
2022-12-18T01:26:08.029Z,94.64
2022-12-18T01:27:10.844Z,94.74
2022-12-18T01:28:13.757Z,94.72
2022-12-18T01:29:48.459Z,94.59
2022-12-18T01:30:51.395Z,94.56
2022-12-18T01:31:55.057Z,94.59
2022-12-18T01:33:30.168Z,94.47
2022-12-18T01:34:33.771Z,94.60
2022-12-18T01:35:36.854Z,94.51
2022-12-18T01:37:11.847Z,94.58
2022-12-18T01:38:14.917Z,94.67
2022-12-18T01:39:17.916Z,94.68
2022-12-18T01:40:52.366Z,94.65
2022-12-18T01:41:55.462Z,94.56
2022-12-18T01:42:58.445Z,94.73
2022-12-18T01:44:33.293Z,94.62
2022-12-18T01:45:36.333Z,94.66
2022-12-18T01:46:39.715Z,94.67
2022-12-18T01:48:14.632Z,94.65
2022-12-18T01:49:17.500Z,94.61
2022-12-18T01:50:20.278Z,94.57
2022-12-18T01:51:55.036Z,94.54
2022-12-18T01:52:57.857Z,94.66
2022-12-18T01:54:00.631Z,94.64
2022-12-18T01:55:35.271Z,94.64
2022-12-18T01:56:37.983Z,94.65
2022-12-18T01:57:40.621Z,94.69
2022-12-18T01:59:15.605Z,94.62
2022-12-18T02:00:17.809Z,94.65
2022-12-18T02:01:21.349Z,94.62
2022-12-18T02:02:25.904Z,94.55
2022-12-18T02:04:02.216Z,94.52
2022-12-18T02:05:06.622Z,94.52
2022-12-18T02:06:09.598Z,94.33
2022-12-18T02:07:44.608Z,94.34
2022-12-18T02:08:47.431Z,94.30
2022-12-18T02:09:50.099Z,94.26
2022-12-18T02:11:25.551Z,94.12
2022-12-18T02:12:28.424Z,94.18
2022-12-18T02:13:31.262Z,94.25
2022-12-18T02:15:06.884Z,94.14
2022-12-18T02:16:09.677Z,94.21
2022-12-18T02:17:12.946Z,94.15
2022-12-18T02:18:47.635Z,94.24
2022-12-18T02:19:50.784Z,94.24
2022-12-18T02:20:53.619Z,94.14
2022-12-18T02:22:28.417Z,94.16
2022-12-18T02:23:31.451Z,94.17
2022-12-18T02:24:34.788Z,94.12
2022-12-18T02:26:09.398Z,94.20
2022-12-18T02:27:12.119Z,94.19
2022-12-18T02:28:15.193Z,94.27
2022-12-18T02:29:55.993Z,94.36
2022-12-18T02:31:01.272Z,94.38
2022-12-18T02:32:04.412Z,94.35
2022-12-18T02:33:39.550Z,94.31
2022-12-18T02:34:42.723Z,94.33
2022-12-18T02:35:45.605Z,94.29
2022-12-18T02:37:20.287Z,94.29
2022-12-18T02:38:23.284Z,94.20
2022-12-18T02:39:25.991Z,94.12
2022-12-18T02:41:01.384Z,94.06
2022-12-18T02:42:04.165Z,94.11
2022-12-18T02:43:06.914Z,94.01
2022-12-18T02:44:41.688Z,94.10
2022-12-18T02:45:44.581Z,93.86
2022-12-18T02:46:47.869Z,93.84
2022-12-18T02:48:22.696Z,93.76
2022-12-18T02:49:25.395Z,93.68
2022-12-18T02:50:28.339Z,93.73
2022-12-18T02:52:02.954Z,93.80
2022-12-18T02:53:06.326Z,93.72
2022-12-18T02:54:09.038Z,93.81
2022-12-18T02:55:43.710Z,93.83
2022-12-18T02:56:46.928Z,93.86
2022-12-18T02:57:49.763Z,93.81
2022-12-18T02:59:24.573Z,93.80
2022-12-18T03:00:17.781Z,93.78
2022-12-18T03:01:21.041Z,93.76
2022-12-18T03:02:25.540Z,93.80
2022-12-18T03:04:01.634Z,93.91
2022-12-18T03:05:04.524Z,93.87
2022-12-18T03:06:07.402Z,93.90
2022-12-18T03:07:42.238Z,94.01
2022-12-18T03:08:45.045Z,93.93
2022-12-18T03:09:47.962Z,93.82
2022-12-18T03:11:22.669Z,93.80
2022-12-18T03:12:25.495Z,93.86
2022-12-18T03:13:28.515Z,93.82
2022-12-18T03:15:04.092Z,93.77
2022-12-18T03:16:13.595Z,93.70
2022-12-18T03:17:17.004Z,93.65
2022-12-18T03:18:51.605Z,93.72
2022-12-18T03:19:54.437Z,93.75
2022-12-18T03:20:57.449Z,93.83
2022-12-18T03:22:32.593Z,93.93
2022-12-18T03:23:35.383Z,94.02
2022-12-18T03:24:38.767Z,94.10
2022-12-18T03:26:13.550Z,93.86
2022-12-18T03:27:16.501Z,93.68
2022-12-18T03:28:19.184Z,93.77
2022-12-18T03:29:54.042Z,93.79
2022-12-18T03:30:56.854Z,93.78
2022-12-18T03:32:00.627Z,93.83
2022-12-18T03:33:41.344Z,93.92
2022-12-18T03:34:44.789Z,93.94
2022-12-18T03:35:47.989Z,93.84
2022-12-18T03:37:22.611Z,93.74
2022-12-18T03:38:25.628Z,93.73
2022-12-18T03:39:28.296Z,93.73
2022-12-18T03:41:02.891Z,93.78
2022-12-18T03:42:06.042Z,93.81
2022-12-18T03:43:08.660Z,93.73
2022-12-18T03:44:44.067Z,93.69
2022-12-18T03:45:47.056Z,93.69
2022-12-18T03:46:50.282Z,93.58
2022-12-18T03:48:25.097Z,93.26
2022-12-18T03:49:28.033Z,93.35
2022-12-18T03:50:30.795Z,93.33
2022-12-18T03:52:05.401Z,93.25
2022-12-18T03:53:08.799Z,93.38
2022-12-18T03:54:11.547Z,93.35
2022-12-18T03:55:46.317Z,93.35
2022-12-18T03:56:49.040Z,93.37
2022-12-18T03:57:51.799Z,93.39
2022-12-18T03:59:28.255Z,93.40
2022-12-18T04:00:17.979Z,93.42
2022-12-18T04:01:21.166Z,93.39
2022-12-18T04:02:25.411Z,93.28
2022-12-18T04:04:07.270Z,93.13
2022-12-18T04:05:10.443Z,93.13
2022-12-18T04:06:13.367Z,93.13
2022-12-18T04:07:48.266Z,93.29
2022-12-18T04:08:50.941Z,93.23
2022-12-18T04:09:53.966Z,93.23
2022-12-18T04:11:28.677Z,93.40
2022-12-18T04:12:31.420Z,93.36
2022-12-18T04:13:34.418Z,93.34
2022-12-18T04:15:10.230Z,93.28
2022-12-18T04:16:13.523Z,93.14
2022-12-18T04:17:16.674Z,93.17
2022-12-18T04:18:51.282Z,93.26
2022-12-18T04:19:54.075Z,93.18
2022-12-18T04:20:56.850Z,93.26
2022-12-18T04:22:31.674Z,93.11
2022-12-18T04:23:34.472Z,93.11
2022-12-18T04:24:37.892Z,93.09
2022-12-18T04:26:12.909Z,93.09
2022-12-18T04:27:15.782Z,93.02
2022-12-18T04:28:18.584Z,92.90
2022-12-18T04:29:53.031Z,92.97
2022-12-18T04:30:55.814Z,92.94
2022-12-18T04:31:58.973Z,92.95
2022-12-18T04:33:38.949Z,92.92
2022-12-18T04:34:42.340Z,92.95
2022-12-18T04:35:45.187Z,93.01
2022-12-18T04:37:19.849Z,92.93
2022-12-18T04:38:22.723Z,92.97
2022-12-18T04:39:25.389Z,92.98
2022-12-18T04:41:00.639Z,93.02
2022-12-18T04:42:03.330Z,92.92
2022-12-18T04:43:06.378Z,92.93
2022-12-18T04:44:42.105Z,92.89
2022-12-18T04:45:46.348Z,92.96
2022-12-18T04:46:49.527Z,92.94
2022-12-18T04:48:24.935Z,92.86
2022-12-18T04:49:27.800Z,92.79
2022-12-18T04:50:30.823Z,92.83
2022-12-18T04:52:12.782Z,92.83
2022-12-18T04:53:15.808Z,92.68
2022-12-18T04:54:19.341Z,92.63
2022-12-18T04:55:54.326Z,92.65
2022-12-18T04:56:57.338Z,92.63
2022-12-18T04:58:00.129Z,92.53
2022-12-18T04:59:34.738Z,92.53
2022-12-18T05:00:17.975Z,92.53
2022-12-18T05:01:21.602Z,92.51
2022-12-18T05:02:32.733Z,92.53
2022-12-18T05:04:08.623Z,92.55
2022-12-18T05:05:49.113Z,92.51
2022-12-18T05:06:52.939Z,92.55
2022-12-18T05:07:56.405Z,92.48
2022-12-18T05:09:33.096Z,92.42
2022-12-18T05:10:43.987Z,92.34
2022-12-18T05:11:46.889Z,92.42
2022-12-18T05:13:21.993Z,92.39
2022-12-18T05:14:26.145Z,92.34
2022-12-18T05:15:29.250Z,92.25
2022-12-18T05:17:07.005Z,92.01
2022-12-18T05:18:10.238Z,92.10
2022-12-18T05:19:13.548Z,92.13
2022-12-18T05:20:48.813Z,92.09
2022-12-18T05:21:52.239Z,92.12
2022-12-18T05:22:55.568Z,92.08
2022-12-18T05:24:31.891Z,92.07
2022-12-18T05:25:35.344Z,92.08
2022-12-18T05:26:39.255Z,92.02
2022-12-18T05:28:14.706Z,92.01
2022-12-18T05:29:17.899Z,92.09
2022-12-18T05:30:21.106Z,92.16
2022-12-18T05:31:57.858Z,92.18
2022-12-18T05:33:00.736Z,92.14
2022-12-18T05:34:03.729Z,92.18
2022-12-18T05:35:40.198Z,92.21
2022-12-18T05:36:43.363Z,92.24
2022-12-18T05:37:49.324Z,92.26
2022-12-18T05:39:24.464Z,92.25
2022-12-18T05:40:27.623Z,92.16
2022-12-18T05:41:31.465Z,92.18
2022-12-18T05:43:07.174Z,92.20
2022-12-18T05:44:19.157Z,92.29
2022-12-18T05:45:22.484Z,92.32
2022-12-18T05:46:57.862Z,92.29
2022-12-18T05:48:01.694Z,92.32
2022-12-18T05:49:04.782Z,92.28
2022-12-18T05:50:39.775Z,92.06
2022-12-18T05:51:42.939Z,91.84
2022-12-18T05:52:46.052Z,91.85
2022-12-18T05:54:21.563Z,92.02
2022-12-18T05:55:24.669Z,92.13
2022-12-18T05:56:27.676Z,92.18
2022-12-18T05:58:09.190Z,92.41
2022-12-18T05:59:12.185Z,92.37
2022-12-18T06:00:18.722Z,92.42
2022-12-18T06:01:21.970Z,92.74
2022-12-18T06:02:26.021Z,92.66
2022-12-18T06:04:03.392Z,93.07
2022-12-18T06:05:07.630Z,93.08
2022-12-18T06:06:11.874Z,93.06
2022-12-18T06:07:47.275Z,92.98
2022-12-18T06:08:52.623Z,93.08
2022-12-18T06:09:55.899Z,93.12
2022-12-18T06:11:31.408Z,93.13
2022-12-18T06:12:34.650Z,93.07
2022-12-18T06:13:38.118Z,93.11
2022-12-18T06:15:19.802Z,93.13
2022-12-18T06:16:23.243Z,93.15
2022-12-18T06:17:26.772Z,93.20
2022-12-18T06:19:02.763Z,93.17
2022-12-18T06:20:05.543Z,93.24
2022-12-18T06:21:14.347Z,93.41
2022-12-18T06:22:50.109Z,93.40
2022-12-18T06:23:53.066Z,93.40
2022-12-18T06:24:56.453Z,93.29
2022-12-18T06:26:34.390Z,93.01
2022-12-18T06:27:37.436Z,93.02
2022-12-18T06:28:41.131Z,93.01
2022-12-18T06:30:17.415Z,92.95
2022-12-18T06:31:20.380Z,92.91
2022-12-18T06:32:23.904Z,93.03
2022-12-18T06:34:04.240Z,93.12
2022-12-18T06:35:07.942Z,93.19
2022-12-18T06:36:13.085Z,93.03
2022-12-18T06:37:48.425Z,93.04
2022-12-18T06:38:51.907Z,93.14
2022-12-18T06:39:55.508Z,93.16
2022-12-18T06:41:30.544Z,93.13
2022-12-18T06:42:33.687Z,93.13
2022-12-18T06:43:37.337Z,93.08
2022-12-18T06:45:18.345Z,92.94
2022-12-18T06:46:21.924Z,92.92
2022-12-18T06:47:24.852Z,92.91
2022-12-18T06:49:00.271Z,92.93
2022-12-18T06:50:09.410Z,92.83
2022-12-18T06:51:12.480Z,92.78
2022-12-18T06:52:47.671Z,92.65
2022-12-18T06:53:51.767Z,92.62
2022-12-18T06:54:54.778Z,92.62
2022-12-18T06:56:30.262Z,92.53
2022-12-18T06:57:33.145Z,92.61
2022-12-18T06:58:36.492Z,92.59
2022-12-18T07:00:18.143Z,92.64
2022-12-18T07:01:21.544Z,92.68
2022-12-18T07:02:26.487Z,92.70
2022-12-18T07:04:03.617Z,92.66
2022-12-18T07:05:13.179Z,92.48
2022-12-18T07:06:16.496Z,92.55
2022-12-18T07:07:51.635Z,92.37
2022-12-18T07:08:54.757Z,92.27
2022-12-18T07:09:57.851Z,92.24
2022-12-18T07:11:42.594Z,92.11
2022-12-18T07:12:45.629Z,92.07
2022-12-18T07:13:49.260Z,92.01
2022-12-18T07:15:24.254Z,91.94
2022-12-18T07:16:31.523Z,91.99
2022-12-18T07:17:35.447Z,91.91
2022-12-18T07:19:10.484Z,91.78
2022-12-18T07:20:13.883Z,91.73
2022-12-18T07:21:17.465Z,91.69
2022-12-18T07:22:57.663Z,91.49
2022-12-18T07:24:01.486Z,91.50
2022-12-18T07:25:04.724Z,91.39
2022-12-18T07:26:39.772Z,91.35
2022-12-18T07:27:43.040Z,91.39
2022-12-18T07:28:46.088Z,91.31
2022-12-18T07:30:21.271Z,91.27
2022-12-18T07:31:24.941Z,91.23
2022-12-18T07:32:28.957Z,91.24
2022-12-18T07:34:04.010Z,91.14
2022-12-18T07:35:07.102Z,91.17
2022-12-18T07:36:17.049Z,91.14
2022-12-18T07:37:51.974Z,91.02
2022-12-18T07:38:54.982Z,91.10
2022-12-18T07:39:58.238Z,91.02
2022-12-18T07:41:33.310Z,90.95
2022-12-18T07:42:43.966Z,90.91
2022-12-18T07:43:47.786Z,90.78
2022-12-18T07:45:23.010Z,90.75
2022-12-18T07:46:26.529Z,90.83
2022-12-18T07:47:29.515Z,90.95
2022-12-18T07:49:06.015Z,90.94
2022-12-18T07:50:09.117Z,90.97
2022-12-18T07:51:12.197Z,90.90
2022-12-18T07:52:47.947Z,90.95
2022-12-18T07:53:52.509Z,90.86
2022-12-18T07:54:55.820Z,90.94
2022-12-18T07:57:59.229Z,90.78
2022-12-18T07:59:03.947Z,90.77
2022-12-18T08:00:17.726Z,90.73
2022-12-18T08:01:21.573Z,90.58
2022-12-18T08:02:27.759Z,90.47
2022-12-18T08:04:08.606Z,90.51
2022-12-18T08:05:12.727Z,90.50
2022-12-18T08:06:16.285Z,90.29
2022-12-18T08:08:00.131Z,90.27
2022-12-18T08:09:03.273Z,90.27
2022-12-18T08:10:06.322Z,90.28
2022-12-18T08:11:41.446Z,90.15
2022-12-18T08:12:44.762Z,90.20
2022-12-18T08:13:56.431Z,90.24
2022-12-18T08:15:31.310Z,90.37
2022-12-18T08:16:34.412Z,90.30
2022-12-18T08:17:38.072Z,90.26
2022-12-18T08:19:13.062Z,90.07
2022-12-18T08:20:15.970Z,90.07
2022-12-18T08:21:19.365Z,90.15
2022-12-18T08:22:56.607Z,90.11
2022-12-18T08:23:59.546Z,89.97
2022-12-18T08:25:02.654Z,89.96
2022-12-18T08:26:37.827Z,89.83
2022-12-18T08:28:21.037Z,89.68
2022-12-18T08:29:27.412Z,89.69
2022-12-18T08:31:03.082Z,89.60
2022-12-18T08:32:07.253Z,89.58
2022-12-18T08:33:10.608Z,89.58
2022-12-18T08:34:47.087Z,89.48
2022-12-18T08:35:51.932Z,89.45
2022-12-18T08:36:54.996Z,89.43
2022-12-18T08:38:29.992Z,89.50
2022-12-18T08:39:33.847Z,89.46
2022-12-18T08:40:36.833Z,89.55
2022-12-18T08:42:16.111Z,89.52
2022-12-18T08:43:19.121Z,89.65
2022-12-18T08:44:22.493Z,89.66
2022-12-18T08:45:58.295Z,89.84
2022-12-18T08:47:01.882Z,89.73
2022-12-18T08:48:04.946Z,89.82
2022-12-18T08:49:46.947Z,89.85
2022-12-18T08:50:50.238Z,89.88
2022-12-18T08:51:53.484Z,89.86
2022-12-18T08:53:34.084Z,89.91
2022-12-18T08:54:39.350Z,89.93
2022-12-18T08:55:45.853Z,89.90
2022-12-18T08:57:25.089Z,89.95
2022-12-18T08:58:28.221Z,89.82
2022-12-18T08:59:31.171Z,89.87
2022-12-18T09:00:18.357Z,89.88
2022-12-18T09:01:22.085Z,89.83
2022-12-18T09:02:28.073Z,89.79
2022-12-18T09:04:04.745Z,89.79
2022-12-18T09:05:09.954Z,89.77
2022-12-18T09:06:14.262Z,89.77
2022-12-18T09:07:51.121Z,89.72
2022-12-18T09:08:54.204Z,89.70
2022-12-18T09:09:57.694Z,89.64
2022-12-18T09:11:35.719Z,89.58
2022-12-18T09:12:39.320Z,89.62
2022-12-18T09:13:43.597Z,89.56
2022-12-18T09:15:19.325Z,89.47
2022-12-18T09:16:28.675Z,89.35
2022-12-18T09:17:34.974Z,89.18
2022-12-18T09:19:10.035Z,89.08
2022-12-18T09:20:13.029Z,89.05
2022-12-18T09:21:16.502Z,89.05
2022-12-18T09:23:00.855Z,88.80
2022-12-18T09:24:04.168Z,88.85
2022-12-18T09:25:08.345Z,88.86
2022-12-18T09:26:47.584Z,88.89
2022-12-18T09:27:55.587Z,88.85
2022-12-18T09:28:59.144Z,88.86
2022-12-18T09:30:34.941Z,88.84
2022-12-18T09:31:39.399Z,88.78
2022-12-18T09:32:42.698Z,88.66
2022-12-18T09:34:19.785Z,88.73
2022-12-18T09:35:23.552Z,88.82
2022-12-18T09:36:27.480Z,88.71
2022-12-18T09:38:03.004Z,88.29
2022-12-18T09:39:12.099Z,88.29
2022-12-18T09:40:17.355Z,88.34
2022-12-18T09:41:52.549Z,88.40
2022-12-18T09:42:55.896Z,88.36
2022-12-18T09:44:00.898Z,88.43
2022-12-18T09:45:37.841Z,88.39
2022-12-18T09:46:42.046Z,88.48
2022-12-18T09:47:45.476Z,88.41
2022-12-18T09:49:21.529Z,88.27
2022-12-18T09:50:24.619Z,88.19
2022-12-18T09:51:28.014Z,88.17
2022-12-18T09:53:03.900Z,88.12
2022-12-18T09:54:07.553Z,88.25
2022-12-18T09:55:11.084Z,88.21
2022-12-18T09:56:56.420Z,87.78
2022-12-18T09:57:59.685Z,87.79
2022-12-18T09:59:04.524Z,87.87
2022-12-18T10:00:17.985Z,87.82
2022-12-18T10:01:21.629Z,87.97
2022-12-18T10:02:41.142Z,87.89
2022-12-18T10:04:17.508Z,87.92
2022-12-18T10:05:21.247Z,87.71
2022-12-18T10:06:24.237Z,87.43
2022-12-18T10:08:01.290Z,87.48
2022-12-18T10:09:04.361Z,87.44
2022-12-18T10:10:07.583Z,87.40
2022-12-18T10:11:42.768Z,87.22
2022-12-18T10:12:47.625Z,87.18
2022-12-18T10:13:56.659Z,87.23
2022-12-18T10:15:32.961Z,87.23
2022-12-18T10:16:37.386Z,87.35
2022-12-18T10:17:40.173Z,87.36
2022-12-18T10:19:15.608Z,87.38
2022-12-18T10:20:18.696Z,87.08
2022-12-18T10:21:21.881Z,87.25
2022-12-18T10:22:56.960Z,87.09
2022-12-18T10:24:00.033Z,87.08
2022-12-18T10:25:04.075Z,87.08
2022-12-18T10:26:39.600Z,87.13
2022-12-18T10:27:42.638Z,87.11
2022-12-18T10:28:46.276Z,86.63
2022-12-18T10:30:29.233Z,86.67
2022-12-18T10:31:32.863Z,86.65
2022-12-18T10:32:36.371Z,86.64
2022-12-18T10:34:11.545Z,86.81
2022-12-18T10:35:14.611Z,86.63
2022-12-18T10:36:17.468Z,86.38
2022-12-18T10:37:53.792Z,86.39
2022-12-18T10:38:57.250Z,86.38
2022-12-18T10:40:00.254Z,86.60
2022-12-18T10:41:42.199Z,86.60
2022-12-18T10:42:45.383Z,86.66
2022-12-18T10:43:48.525Z,86.71
2022-12-18T10:45:23.699Z,86.32
2022-12-18T10:46:27.032Z,86.25
2022-12-18T10:47:30.788Z,86.28
2022-12-18T10:49:06.083Z,85.98
2022-12-18T10:50:09.226Z,85.73
2022-12-18T10:51:55.147Z,85.98
2022-12-18T10:53:39.760Z,85.98
2022-12-18T10:54:43.658Z,85.64
2022-12-18T10:55:46.739Z,85.56
2022-12-18T10:57:23.424Z,85.27
2022-12-18T10:58:32.312Z,85.17
2022-12-18T10:59:35.846Z,85.28
2022-12-18T11:00:18.005Z,85.29
2022-12-18T11:01:21.539Z,85.29
2022-12-18T11:02:25.678Z,85.32
2022-12-18T11:04:08.029Z,85.26
2022-12-18T11:05:10.945Z,85.34
2022-12-18T11:06:14.527Z,85.35
2022-12-18T11:07:50.199Z,85.26
2022-12-18T11:08:53.430Z,84.99
2022-12-18T11:10:05.093Z,84.99
2022-12-18T11:11:42.215Z,84.69
2022-12-18T11:12:45.319Z,84.87
2022-12-18T11:13:49.705Z,84.77
2022-12-18T11:15:32.643Z,84.78
2022-12-18T11:16:36.481Z,84.84
2022-12-18T11:18:18.014Z,84.73
2022-12-18T11:19:53.669Z,84.87
2022-12-18T11:21:03.896Z,84.75
2022-12-18T11:22:06.880Z,84.57
2022-12-18T11:23:43.103Z,84.77
2022-12-18T11:25:08.428Z,84.82
2022-12-18T11:26:34.097Z,84.97
2022-12-18T11:28:16.213Z,84.78
2022-12-18T11:29:19.920Z,84.98
2022-12-18T11:30:32.499Z,84.91
2022-12-18T11:32:07.931Z,84.82
2022-12-18T11:33:11.242Z,84.97
2022-12-18T11:34:35.059Z,84.71
2022-12-18T11:36:18.013Z,84.46
2022-12-18T11:37:20.944Z,84.48
2022-12-18T11:38:24.071Z,84.27
2022-12-18T11:39:59.826Z,84.08
2022-12-18T11:41:03.066Z,83.89
2022-12-18T11:42:06.290Z,83.56
2022-12-18T11:43:42.522Z,83.62
2022-12-18T11:44:45.657Z,83.41
2022-12-18T11:45:48.533Z,83.39
2022-12-18T11:47:33.252Z,83.30
2022-12-18T11:48:36.265Z,83.15
2022-12-18T11:49:39.912Z,82.90
2022-12-18T11:51:15.007Z,82.76
2022-12-18T11:52:24.423Z,82.62
2022-12-18T11:53:33.409Z,82.66
2022-12-18T11:55:08.489Z,82.90
2022-12-18T11:56:11.372Z,83.00
2022-12-18T11:57:14.413Z,83.03
2022-12-18T11:58:50.269Z,82.11
2022-12-18T11:59:53.271Z,82.14
2022-12-18T12:00:18.428Z,82.18
2022-12-18T12:01:21.698Z,82.00
2022-12-18T12:02:31.176Z,82.13
2022-12-18T12:04:08.235Z,82.16
2022-12-18T12:05:11.894Z,81.88
2022-12-18T12:06:15.082Z,81.74
2022-12-18T12:07:56.819Z,81.32
2022-12-18T12:09:00.007Z,81.60
2022-12-18T12:10:03.363Z,81.65
2022-12-18T12:11:38.471Z,81.48
2022-12-18T12:12:46.589Z,80.56
2022-12-18T12:13:51.162Z,81.04
2022-12-18T12:15:26.251Z,81.10
2022-12-18T12:16:29.561Z,81.23
2022-12-18T12:17:33.701Z,80.84
2022-12-18T12:19:09.317Z,80.83
2022-12-18T12:20:12.708Z,80.93
2022-12-18T12:21:22.173Z,80.71
2022-12-18T12:22:58.189Z,80.67
2022-12-18T12:24:08.137Z,80.40
2022-12-18T12:25:11.032Z,80.04
2022-12-18T12:26:47.220Z,79.96
2022-12-18T12:27:53.201Z,80.41
2022-12-18T12:28:56.298Z,80.47
2022-12-18T12:30:39.523Z,80.54
2022-12-18T12:31:42.581Z,80.57
2022-12-18T12:32:45.892Z,80.47
2022-12-18T12:34:23.286Z,80.36
2022-12-18T12:35:27.428Z,80.57
2022-12-18T12:36:30.663Z,80.64
2022-12-18T12:38:07.162Z,80.53
2022-12-18T12:39:10.160Z,80.45
2022-12-18T12:41:02.391Z,80.53
2022-12-18T12:42:37.959Z,80.62
2022-12-18T12:43:47.949Z,80.27
2022-12-18T12:45:01.494Z,80.50
2022-12-18T12:46:38.906Z,80.65
2022-12-18T12:47:43.047Z,80.42
2022-12-18T12:48:48.764Z,80.54
2022-12-18T12:50:33.035Z,80.47
2022-12-18T12:51:36.851Z,80.49
2022-12-18T12:52:43.754Z,80.58
2022-12-18T12:54:22.228Z,80.74
2022-12-18T12:55:28.086Z,80.98
2022-12-18T12:56:31.962Z,80.61
2022-12-18T12:58:09.024Z,80.67
2022-12-18T12:59:13.702Z,80.65
2022-12-18T13:00:18.189Z,80.85
2022-12-18T13:01:29.460Z,80.81
2022-12-18T13:02:34.544Z,80.74
2022-12-18T13:04:10.894Z,80.47
2022-12-18T13:05:15.070Z,80.71
2022-12-18T13:06:20.475Z,80.86
2022-12-18T13:13:52.250Z,80.59
2022-12-18T13:14:58.297Z,80.50
2022-12-18T13:16:09.800Z,80.53
2022-12-18T13:17:49.591Z,80.72
2022-12-18T13:18:52.944Z,80.73
2022-12-18T13:19:57.274Z,80.46
2022-12-18T13:21:51.265Z,80.32
2022-12-18T13:22:54.778Z,80.38
2022-12-18T13:24:00.011Z,80.40
2022-12-18T13:25:39.511Z,80.43
2022-12-18T13:26:43.287Z,80.51
2022-12-18T13:27:46.688Z,80.25
2022-12-18T13:29:25.161Z,79.90
2022-12-18T13:30:29.754Z,79.98
2022-12-18T13:31:36.172Z,80.01
2022-12-18T13:33:15.284Z,79.96
2022-12-18T13:34:50.164Z,80.03
2022-12-18T13:35:53.979Z,80.20
2022-12-18T13:37:33.855Z,80.20
2022-12-18T13:38:38.519Z,80.19
2022-12-18T13:39:43.092Z,80.34
2022-12-18T13:41:21.953Z,79.93
2022-12-18T13:42:27.245Z,79.99
2022-12-18T13:43:31.059Z,79.88
2022-12-18T13:45:08.101Z,80.12
2022-12-18T13:46:12.106Z,80.11
2022-12-18T13:47:17.426Z,80.33
2022-12-18T13:48:54.352Z,80.21
2022-12-18T13:49:58.526Z,80.13
2022-12-18T13:51:03.839Z,80.16
2022-12-18T13:52:40.899Z,80.18
2022-12-18T13:53:45.312Z,80.39
2022-12-18T13:54:48.838Z,80.54
2022-12-18T13:56:26.881Z,80.54
2022-12-18T13:57:32.471Z,80.63
2022-12-18T13:58:38.244Z,80.54
2022-12-18T14:00:17.877Z,80.48
2022-12-18T14:01:22.521Z,80.19
2022-12-18T14:02:27.209Z,80.38
2022-12-18T14:04:09.831Z,80.37
2022-12-18T14:05:15.910Z,80.36
2022-12-18T14:06:20.846Z,80.38
2022-12-18T14:08:02.421Z,80.59
2022-12-18T14:09:09.521Z,80.69
2022-12-18T14:10:53.675Z,80.50
2022-12-18T14:12:33.070Z,80.75
2022-12-18T14:13:37.476Z,80.80
2022-12-18T14:14:40.950Z,80.72
2022-12-18T14:16:21.551Z,80.71
2022-12-18T14:17:27.660Z,80.70
2022-12-18T14:18:32.502Z,80.79
2022-12-18T14:20:20.787Z,80.85
2022-12-18T14:21:31.141Z,80.54
2022-12-18T14:22:34.549Z,80.63
2022-12-18T14:24:10.927Z,80.75
2022-12-18T14:25:17.148Z,80.70
2022-12-18T14:26:20.746Z,80.17
2022-12-18T14:27:55.706Z,80.38
2022-12-18T14:28:58.661Z,80.44
2022-12-18T14:30:02.332Z,80.29
2022-12-18T14:31:38.189Z,80.45
2022-12-18T14:32:42.341Z,80.40
2022-12-18T14:33:46.326Z,80.19
2022-12-18T14:35:21.347Z,80.23
2022-12-18T14:36:25.121Z,80.26
2022-12-18T14:37:28.176Z,80.33
2022-12-18T14:39:02.907Z,80.45
2022-12-18T14:40:16.798Z,80.40
2022-12-18T14:41:21.265Z,80.36
2022-12-18T14:42:56.351Z,80.21
2022-12-18T14:43:59.840Z,80.21
2022-12-18T14:45:20.013Z,80.14
2022-12-18T14:47:04.535Z,80.37
2022-12-18T14:48:08.641Z,80.30
2022-12-18T14:49:16.736Z,80.24
2022-12-18T14:50:51.825Z,80.31
2022-12-18T14:51:56.132Z,80.30
2022-12-18T14:53:00.963Z,80.42
2022-12-18T14:54:44.193Z,80.25
2022-12-18T14:55:47.291Z,80.24
2022-12-18T14:56:50.808Z,80.31
2022-12-18T14:58:26.145Z,80.45
2022-12-18T14:59:30.886Z,80.45
2022-12-18T15:00:18.017Z,80.49
2022-12-18T15:01:21.591Z,80.47
2022-12-18T15:02:26.312Z,80.40
2022-12-18T15:04:03.694Z,80.32
2022-12-18T15:05:13.003Z,80.45
2022-12-18T15:06:16.788Z,80.46
2022-12-18T15:07:52.283Z,80.30
2022-12-18T15:08:55.577Z,80.33
2022-12-18T15:09:58.880Z,80.32
2022-12-18T15:11:34.657Z,80.19
2022-12-18T15:12:38.117Z,80.12
2022-12-18T15:13:42.262Z,80.13
2022-12-18T15:15:17.454Z,80.02
2022-12-18T15:16:21.388Z,79.99
2022-12-18T15:17:32.444Z,79.63
2022-12-18T15:19:07.250Z,79.76
2022-12-18T15:20:10.476Z,79.57
2022-12-18T15:21:13.300Z,79.63
2022-12-18T15:22:53.258Z,79.29
2022-12-18T15:23:56.230Z,79.35
2022-12-18T15:24:59.929Z,79.29
2022-12-18T15:26:35.012Z,79.56
2022-12-18T15:27:37.903Z,79.51
2022-12-18T15:28:41.009Z,79.58
2022-12-18T15:30:17.256Z,79.75
2022-12-18T15:31:21.928Z,79.70
2022-12-18T15:32:25.470Z,79.92
2022-12-18T15:34:01.961Z,79.95
2022-12-18T15:35:04.945Z,80.22
2022-12-18T15:36:08.063Z,80.56
2022-12-18T15:37:50.858Z,80.49
2022-12-18T15:38:54.113Z,80.52
2022-12-18T15:40:03.827Z,80.79
2022-12-18T15:41:42.015Z,80.76
2022-12-18T15:42:45.030Z,80.68
2022-12-18T15:43:48.687Z,80.74
2022-12-18T15:45:24.955Z,80.84
2022-12-18T15:46:28.639Z,80.82
2022-12-18T15:47:32.527Z,80.75
2022-12-18T15:49:08.890Z,80.76
2022-12-18T15:50:13.295Z,80.73
2022-12-18T15:51:17.334Z,80.81
2022-12-18T15:52:52.207Z,80.84
2022-12-18T15:53:56.787Z,80.75
2022-12-18T15:54:59.788Z,80.68
2022-12-18T15:56:41.378Z,80.61
2022-12-18T15:57:44.940Z,80.66
2022-12-18T15:58:48.206Z,80.30
2022-12-18T16:00:17.883Z,79.95
2022-12-18T16:01:21.258Z,79.78
2022-12-18T16:02:31.330Z,79.88
2022-12-18T16:04:09.922Z,80.08
2022-12-18T16:05:13.138Z,79.84
2022-12-18T16:06:16.292Z,79.96
2022-12-18T16:08:37.768Z,79.86
2022-12-18T16:09:42.673Z,80.07
2022-12-18T16:10:48.768Z,79.95
2022-12-18T16:12:23.650Z,80.11